D/T METAR WX W/DIR W/SPE G/SPE TEMP DEWP
23/05/19 14:20 EGAC 231320Z AUTO 02006KT 9999 BKN040/// 15/08 Q1015 NNE (20°) 6.9mph 15°C 8°C
23/05/19 13:50 EGAC 231250Z AUTO 02006KT 9999 BKN042/// 15/08 Q1015 NNE (20°) 6.9mph 15°C 8°C
23/05/19 13:20 EGAC 231220Z AUTO 02005KT 340V050 9999 SCT042/// 16/09 Q1015 NNE (20°) 5.8mph 16°C 9°C
23/05/19 12:50 EGAC 231150Z AUTO 36004KT 9999 BKN041/// 14/08 Q1016 N (360°) 4.6mph 14°C 8°C
23/05/19 12:20 EGAC 231120Z AUTO 02006KT 9999 SCT042/// 14/08 Q1016 NNE (20°) 6.9mph 14°C 8°C
23/05/19 11:50 EGAC 231050Z AUTO 02007KT 9999 FEW045/// 13/08 Q1016 NNE (20°) 8.1mph 13°C 8°C
23/05/19 10:50 EGAC 230950Z AUTO 02008KT 9999 FEW043/// 14/08 Q1016 NNE (20°) 9.2mph 14°C 8°C
23/05/19 10:20 EGAC 230920Z AUTO 36005KT 320V040 9999 SCT045/// 13/07 Q1016 N (360°) 5.8mph 13°C 7°C
23/05/19 09:50 EGAC 230850Z AUTO 35005KT 310V020 9999 FEW045/// 13/07 Q1016 N (350°) 5.8mph 13°C 7°C
23/05/19 09:20 EGAC 230820Z AUTO 02004KT 340V050 9999 NCD 12/07 Q1016 NNE (20°) 4.6mph 12°C 7°C
23/05/19 08:50 EGAC 230750Z AUTO 02005KT 9999 NCD 12/06 Q1016 NNE (20°) 5.8mph 12°C 6°C
23/05/19 08:20 EGAC 230720Z AUTO VRB02KT 9999 NCD 12/06 Q1016 N (0°) 2.3mph 12°C 6°C
23/05/19 07:50 EGAC 230650Z AUTO VRB01KT 9999 NCD 11/05 Q1016 N (0°) 1.2mph 11°C 5°C
23/05/19 07:20 EGAC 230620Z AUTO 00000KT 9999 SCT040/// 10/06 Q1016 N (0°) 10°C 6°C
23/05/19 06:50 EGAC 230550Z AUTO 04002KT 9999 BKN040/// BKN049/// 09/06 Q1016 NE (40°) 2.3mph 9°C 6°C
23/05/19 06:20 EGAC 230520Z AUTO 07002KT 9999 OVC044/// 08/05 Q1016 ENE (70°) 2.3mph 8°C 5°C
23/05/19 05:50 EGAC 230450Z AUTO 17003KT 9999 BKN046/// 07/05 Q1016 S (170°) 3.5mph 7°C 5°C
23/05/19 05:20 EGAC 230420Z AUTO 18002KT 9999 NCD 07/05 Q1016 S (180°) 2.3mph 7°C 5°C
23/05/19 04:50 EGAC 230350Z AUTO VRB01KT 9999 SCT044/// 07/05 Q1016 N (0°) 1.2mph 7°C 5°C
23/05/19 04:20 EGAC 230320Z AUTO 18002KT 9999 SCT045/// 07/05 Q1016 S (180°) 2.3mph 7°C 5°C
23/05/19 03:50 EGAC 230250Z AUTO 18002KT 9999 NCD 07/05 Q1016 S (180°) 2.3mph 7°C 5°C
23/05/19 03:20 EGAC 230220Z AUTO 17002KT 9999 NCD 07/05 Q1016 S (170°) 2.3mph 7°C 5°C
23/05/19 02:50 EGAC 230150Z AUTO 00000KT 9999 NCD 07/05 Q1016 N (0°) 7°C 5°C
23/05/19 02:20 EGAC 230120Z AUTO 11001KT 9999 NCD 07/05 Q1017 ESE (110°) 1.2mph 7°C 5°C
23/05/19 01:50 EGAC 230050Z AUTO 15002KT 9999 NCD 08/05 Q1017 SSE (150°) 2.3mph 8°C 5°C
23/05/19 01:20 EGAC 230020Z AUTO 16003KT 9999 NCD 09/05 Q1017 SSE (160°) 3.5mph 9°C 5°C
23/05/19 00:50 EGAC 222350Z AUTO 20001KT 9999 NCD 08/04 Q1017 SSW (200°) 1.2mph 8°C 4°C
23/05/19 00:20 EGAC 222320Z AUTO VRB01KT 9999 NCD 09/05 Q1017 N (0°) 1.2mph 9°C 5°C
22/05/19 23:50 EGAC 222250Z AUTO 06003KT 9999 NCD 09/04 Q1017 ENE (60°) 3.5mph 9°C 4°C
22/05/19 23:20 EGAC 222220Z AUTO 06003KT 9999 NCD 09/04 Q1018 ENE (60°) 3.5mph 9°C 4°C
22/05/19 22:50 EGAC 222150Z AUTO 08004KT 9999 NCD 09/04 Q1018 E (80°) 4.6mph 9°C 4°C
22/05/19 22:20 EGAC 222120Z AUTO 07006KT 9999 NCD 09/04 Q1018 ENE (70°) 6.9mph 9°C 4°C
22/05/19 21:50 EGAC 222050Z AUTO 06005KT 9999 NCD 09/05 Q1018 ENE (60°) 5.8mph 9°C 5°C
22/05/19 21:20 EGAC 222020Z AUTO 05005KT 9999 NCD 10/05 Q1018 NE (50°) 5.8mph 10°C 5°C
22/05/19 20:50 EGAC 221950Z AUTO 05006KT 9999 NCD 11/05 Q1018 NE (50°) 6.9mph 11°C 5°C
22/05/19 20:20 EGAC 221920Z AUTO 06005KT 030V110 9999 NCD 12/06 Q1018 ENE (60°) 5.8mph 12°C 6°C
22/05/19 19:50 EGAC 221850Z AUTO 06007KT 9999 NCD 12/05 Q1018 ENE (60°) 8.1mph 12°C 5°C
22/05/19 19:20 EGAC 221820Z AUTO 05008KT 9999 NCD 13/06 Q1018 NE (50°) 9.2mph 13°C 6°C
22/05/19 18:50 EGAC 221750Z AUTO 09004KT 030V190 9999 NCD 13/06 Q1018 E (90°) 4.6mph 13°C 6°C
22/05/19 18:20 EGAC 221720Z AUTO 06005KT 030V090 9999 NCD 13/06 Q1018 ENE (60°) 5.8mph 13°C 6°C
22/05/19 17:50 EGAC 221650Z AUTO 07009KT 9999 NCD 14/06 Q1018 ENE (70°) 10.4mph 14°C 6°C
22/05/19 17:20 EGAC 221620Z AUTO 03007KT 010V080 9999 NCD 14/06 Q1018 NNE (30°) 8.1mph 14°C 6°C
22/05/19 16:50 EGAC 221550Z AUTO 11004KT 070V170 9999 NCD 14/06 Q1018 ESE (110°) 4.6mph 14°C 6°C
22/05/19 16:20 EGAC 221520Z AUTO 12005KT 360V170 9999 NCD 14/06 Q1018 ESE (120°) 5.8mph 14°C 6°C
22/05/19 15:50 EGAC 221450Z AUTO 09005KT 020V140 9999 NCD 14/06 Q1018 E (90°) 5.8mph 14°C 6°C
22/05/19 15:20 EGAC 221420Z AUTO 08008KT 040V110 9999 NCD 13/06 Q1019 E (80°) 9.2mph 13°C 6°C
22/05/19 14:20 EGAC 221320Z AUTO 06008KT 360V100 9999 BKN049/// 14/06 Q1019 ENE (60°) 9.2mph 14°C 6°C
22/05/19 13:50 EGAC 221250Z AUTO 02010KT 9999 NCD 15/07 Q1019 NNE (20°) 11.5mph 15°C 7°C